sensor_id;sensor_type;location;lat;lon;timestamp;pressure;altitude;pressure_sealevel;temperature;humidity
28648;BME280;17137;51.494;-0.262;2023-02-28T00:00:23;50701.79;;;-145.72;73.16
28648;BME280;17137;51.494;-0.262;2023-02-28T00:00:53;50701.43;;;-145.72;73.06
28648;BME280;17137;51.494;-0.262;2023-02-28T00:01:24;50700.44;;;-145.72;73.58
28648;BME280;17137;51.494;-0.262;2023-02-28T00:01:54;50704.14;;;-145.72;73.80
28648;BME280;17137;51.494;-0.262;2023-02-28T00:02:24;50705.74;;;-145.72;73.66
28648;BME280;17137;51.494;-0.262;2023-02-28T00:02:54;50702.16;;;-145.72;73.33
28648;BME280;17137;51.494;-0.262;2023-02-28T00:03:25;50696.86;;;-145.72;73.36
28648;BME280;17137;51.494;-0.262;2023-02-28T00:03:55;50697.60;;;-145.72;73.19
28648;BME280;17137;51.494;-0.262;2023-02-28T00:04:25;50700.19;;;-145.72;73.37
28648;BME280;17137;51.494;-0.262;2023-02-28T00:04:55;50694.27;;;-145.72;73.39
28648;BME280;17137;51.494;-0.262;2023-02-28T00:05:27;50700.69;;;-145.72;74.12
28648;BME280;17137;51.494;-0.262;2023-02-28T00:05:57;50701.43;;;-145.72;73.81
28648;BME280;17137;51.494;-0.262;2023-02-28T00:06:28;50692.80;;;-145.72;73.59
28648;BME280;17137;51.494;-0.262;2023-02-28T00:06:58;50694.15;;;-145.72;73.51
28648;BME280;17137;51.494;-0.262;2023-02-28T00:07:29;50702.29;;;-145.72;73.90
28648;BME280;17137;51.494;-0.262;2023-02-28T00:07:59;50689.84;;;-145.72;74.00
28648;BME280;17137;51.494;-0.262;2023-02-28T00:08:30;50713.63;;;-145.72;74.33
28648;BME280;17137;51.494;-0.262;2023-02-28T00:09:00;50702.04;;;-145.72;74.41
28648;BME280;17137;51.494;-0.262;2023-02-28T00:09:30;50699.08;;;-145.72;74.26
28648;BME280;17137;51.494;-0.262;2023-02-28T00:10:01;50702.29;;;-145.72;74.52
28648;BME280;17137;51.494;-0.262;2023-02-28T00:10:32;50701.79;;;-145.72;74.58
28648;BME280;17137;51.494;-0.262;2023-02-28T00:11:04;50710.55;;;-145.72;74.44
28648;BME280;17137;51.494;-0.262;2023-02-28T00:11:35;50707.96;;;-145.72;75.27
28648;BME280;17137;51.494;-0.262;2023-02-28T00:12:05;50711.16;;;-145.72;75.62
28648;BME280;17137;51.494;-0.262;2023-02-28T00:12:36;50718.31;;;-145.72;76.00
28648;BME280;17137;51.494;-0.262;2023-02-28T00:13:07;50700.56;;;-145.72;75.94
28648;BME280;17137;51.494;-0.262;2023-02-28T00:13:39;50703.52;;;-145.72;75.56
28648;BME280;17137;51.494;-0.262;2023-02-28T00:14:10;50697.97;;;-145.72;75.12
28648;BME280;17137;51.494;-0.262;2023-02-28T00:14:40;50707.47;;;-145.72;75.74
28648;BME280;17137;51.494;-0.262;2023-02-28T00:15:11;50705.49;;;-145.72;76.37
28648;BME280;17137;51.494;-0.262;2023-02-28T00:15:41;50716.10;;;-145.72;75.98
28648;BME280;17137;51.494;-0.262;2023-02-28T00:16:14;50713.51;;;-145.72;75.76
28648;BME280;17137;51.494;-0.262;2023-02-28T00:16:45;50693.66;;;-145.72;75.63
28648;BME280;17137;51.494;-0.262;2023-02-28T00:17:15;50704.75;;;-145.72;76.32
28648;BME280;17137;51.494;-0.262;2023-02-28T00:17:46;50729.41;;;-145.72;76.23
28648;BME280;17137;51.494;-0.262;2023-02-28T00:18:16;50704.01;;;-145.72;76.17
28648;BME280;17137;51.494;-0.262;2023-02-28T00:18:47;50702.78;;;-145.72;76.11
28648;BME280;17137;51.494;-0.262;2023-02-28T00:19:17;50705.74;;;-145.72;76.06
28648;BME280;17137;51.494;-0.262;2023-02-28T00:19:48;50705.37;;;-145.72;76.28
28648;BME280;17137;51.494;-0.262;2023-02-28T00:20:19;50692.55;;;-145.72;76.29
28648;BME280;17137;51.494;-0.262;2023-02-28T00:20:49;50705.37;;;-145.72;76.13
28648;BME280;17137;51.494;-0.262;2023-02-28T00:21:20;50694.03;;;-145.72;75.88
28648;BME280;17137;51.494;-0.262;2023-02-28T00:21:50;50697.48;;;-145.72;75.64
28648;BME280;17137;51.494;-0.262;2023-02-28T00:22:26;50707.10;;;-145.72;75.74
28648;BME280;17137;51.494;-0.262;2023-02-28T00:22:56;50701.30;;;-145.72;75.99
28648;BME280;17137;51.494;-0.262;2023-02-28T00:23:27;50700.44;;;-145.72;76.42
28648;BME280;17137;51.494;-0.262;2023-02-28T00:23:58;50697.97;;;-145.72;76.52
28648;BME280;17137;51.494;-0.262;2023-02-28T00:24:28;50700.19;;;-145.72;76.40
28648;BME280;17137;51.494;-0.262;2023-02-28T00:24:58;50706.85;;;-145.72;76.32
28648;BME280;17137;51.494;-0.262;2023-02-28T00:25:29;50721.64;;;-145.72;77.20
28648;BME280;17137;51.494;-0.262;2023-02-28T00:25:59;50715.48;;;-145.72;77.36
28648;BME280;17137;51.494;-0.262;2023-02-28T00:26:29;50699.82;;;-145.72;77.17
28648;BME280;17137;51.494;-0.262;2023-02-28T00:26:59;50714.37;;;-145.72;77.13
28648;BME280;17137;51.494;-0.262;2023-02-28T00:27:30;50705.49;;;-145.72;77.29
28648;BME280;17137;51.494;-0.262;2023-02-28T00:28:00;50708.58;;;-145.72;77.13
28648;BME280;17137;51.494;-0.262;2023-02-28T00:28:31;50697.36;;;-145.72;77.07
28648;BME280;17137;51.494;-0.262;2023-02-28T00:29:01;50700.32;;;-145.72;76.69
28648;BME280;17137;51.494;-0.262;2023-02-28T00:29:31;50701.18;;;-145.72;77.19
28648;BME280;17137;51.494;-0.262;2023-02-28T00:30:02;50701.43;;;-145.72;76.95
28648;BME280;17137;51.494;-0.262;2023-02-28T00:30:33;50719.55;;;-145.72;77.81
28648;BME280;17137;51.494;-0.262;2023-02-28T00:31:04;50713.63;;;-145.72;77.81
28648;BME280;17137;51.494;-0.262;2023-02-28T00:31:34;50703.52;;;-145.72;77.38
28648;BME280;17137;51.494;-0.262;2023-02-28T00:32:05;50709.93;;;-145.72;77.11
28648;BME280;17137;51.494;-0.262;2023-02-28T00:32:35;50707.71;;;-145.72;76.94
28648;BME280;17137;51.494;-0.262;2023-02-28T00:33:06;50703.64;;;-145.72;77.03
28648;BME280;17137;51.494;-0.262;2023-02-28T00:33:36;50706.60;;;-145.72;77.01
28648;BME280;17137;51.494;-0.262;2023-02-28T00:34:06;50706.60;;;-145.72;77.41
28648;BME280;17137;51.494;-0.262;2023-02-28T00:34:37;50705.12;;;-145.72;77.45
28648;BME280;17137;51.494;-0.262;2023-02-28T00:35:08;50709.07;;;-145.72;77.56
28648;BME280;17137;51.494;-0.262;2023-02-28T00:35:39;50710.05;;;-145.72;77.97
28648;BME280;17137;51.494;-0.262;2023-02-28T00:36:12;50698.10;;;-145.72;78.14
28648;BME280;17137;51.494;-0.262;2023-02-28T00:36:43;50701.79;;;-145.72;78.16
28648;BME280;17137;51.494;-0.262;2023-02-28T00:37:13;50709.32;;;-145.72;78.09
28648;BME280;17137;51.494;-0.262;2023-02-28T00:37:43;50723.99;;;-145.72;79.16
28648;BME280;17137;51.494;-0.262;2023-02-28T00:38:14;50702.90;;;-145.72;79.10
28648;BME280;17137;51.494;-0.262;2023-02-28T00:38:44;50706.73;;;-145.72;78.76
28648;BME280;17137;51.494;-0.262;2023-02-28T00:39:15;50698.10;;;-145.72;78.60
28648;BME280;17137;51.494;-0.262;2023-02-28T00:39:45;50718.19;;;-145.72;78.56
28648;BME280;17137;51.494;-0.262;2023-02-28T00:40:16;50716.84;;;-145.72;78.73
28648;BME280;17137;51.494;-0.262;2023-02-28T00:40:46;50704.88;;;-145.72;78.72
28648;BME280;17137;51.494;-0.262;2023-02-28T00:41:16;50709.44;;;-145.72;78.87
28648;BME280;17137;51.494;-0.262;2023-02-28T00:41:47;50722.14;;;-145.72;78.59
28648;BME280;17137;51.494;-0.262;2023-02-28T00:42:17;50696.74;;;-145.72;78.39
28648;BME280;17137;51.494;-0.262;2023-02-28T00:42:47;50705.86;;;-145.72;78.15
28648;BME280;17137;51.494;-0.262;2023-02-28T00:43:17;50709.81;;;-145.72;78.61
28648;BME280;17137;51.494;-0.262;2023-02-28T00:43:48;50709.07;;;-145.72;78.99
28648;BME280;17137;51.494;-0.262;2023-02-28T00:44:18;50713.01;;;-145.72;79.17
28648;BME280;17137;51.494;-0.262;2023-02-28T00:44:48;50712.27;;;-145.72;78.89
28648;BME280;17137;51.494;-0.262;2023-02-28T00:45:18;50707.84;;;-145.72;78.89
28648;BME280;17137;51.494;-0.262;2023-02-28T00:45:49;50709.81;;;-145.72;78.76
28648;BME280;17137;51.494;-0.262;2023-02-28T00:46:19;50687.86;;;-145.72;78.55
28648;BME280;17137;51.494;-0.262;2023-02-28T00:46:49;50706.97;;;-145.72;78.55
28648;BME280;17137;51.494;-0.262;2023-02-28T00:47:19;50692.43;;;-145.72;78.47
28648;BME280;17137;51.494;-0.262;2023-02-28T00:47:50;50691.07;;;-145.72;78.49
28648;BME280;17137;51.494;-0.262;2023-02-28T00:48:21;50697.97;;;-145.72;78.58
28648;BME280;17137;51.494;-0.262;2023-02-28T00:48:51;50711.16;;;-145.72;78.92
28648;BME280;17137;51.494;-0.262;2023-02-28T00:49:21;50696.99;;;-145.72;78.81
28648;BME280;17137;51.494;-0.262;2023-02-28T00:49:51;50707.71;;;-145.72;79.41
28648;BME280;17137;51.494;-0.262;2023-02-28T00:50:22;50698.22;;;-145.72;79.28
28648;BME280;17137;51.494;-0.262;2023-02-28T00:50:52;50711.29;;;-145.72;79.51
28648;BME280;17137;51.494;-0.262;2023-02-28T00:51:22;50724.60;;;-145.72;80.35
28648;BME280;17137;51.494;-0.262;2023-02-28T00:51:54;50709.68;;;-145.72;79.99
28648;BME280;17137;51.494;-0.262;2023-02-28T00:52:24;50699.58;;;-145.72;79.72
28648;BME280;17137;51.494;-0.262;2023-02-28T00:52:54;50708.08;;;-145.72;79.48
28648;BME280;17137;51.494;-0.262;2023-02-28T00:53:54;50724.11;;;-145.72;80.19
28648;BME280;17137;51.494;-0.262;2023-02-28T00:54:24;50714.49;;;-145.72;80.31
28648;BME280;17137;51.494;-0.262;2023-02-28T00:54:55;50706.11;;;-145.72;80.05
28648;BME280;17137;51.494;-0.262;2023-02-28T00:55:25;50705.49;;;-145.72;79.72
28648;BME280;17137;51.494;-0.262;2023-02-28T00:55:56;50710.42;;;-145.72;79.64
28648;BME280;17137;51.494;-0.262;2023-02-28T00:56:26;50720.04;;;-145.72;80.18
28648;BME280;17137;51.494;-0.262;2023-02-28T00:56:56;50708.95;;;-145.72;80.08
28648;BME280;17137;51.494;-0.262;2023-02-28T00:57:27;50720.78;;;-145.72;80.00
28648;BME280;17137;51.494;-0.262;2023-02-28T00:57:57;50703.27;;;-145.72;79.84
28648;BME280;17137;51.494;-0.262;2023-02-28T00:58:27;50713.63;;;-145.72;80.00
28648;BME280;17137;51.494;-0.262;2023-02-28T00:58:58;50702.90;;;-145.72;80.09
28648;BME280;17137;51.494;-0.262;2023-02-28T00:59:28;50695.88;;;-145.72;80.15
28648;BME280;17137;51.494;-0.262;2023-02-28T00:59:58;50700.69;;;-145.72;79.97
28648;BME280;17137;51.494;-0.262;2023-02-28T01:00:29;50702.53;;;-145.72;79.98
28648;BME280;17137;51.494;-0.262;2023-02-28T01:00:59;50714.37;;;-145.72;79.91
28648;BME280;17137;51.494;-0.262;2023-02-28T01:01:29;50713.01;;;-145.72;80.12
28648;BME280;17137;51.494;-0.262;2023-02-28T01:02:00;50708.08;;;-145.72;79.97
28648;BME280;17137;51.494;-0.262;2023-02-28T01:02:30;50712.15;;;-145.72;79.92
28648;BME280;17137;51.494;-0.262;2023-02-28T01:03:01;50706.11;;;-145.72;79.79
28648;BME280;17137;51.494;-0.262;2023-02-28T01:03:31;50708.70;;;-145.72;79.81
28648;BME280;17137;51.494;-0.262;2023-02-28T01:04:02;50704.01;;;-145.72;79.95
28648;BME280;17137;51.494;-0.262;2023-02-28T01:04:33;50717.70;;;-145.72;80.44
28648;BME280;17137;51.494;-0.262;2023-02-28T01:05:05;50710.67;;;-145.72;81.16
28648;BME280;17137;51.494;-0.262;2023-02-28T01:05:35;50712.89;;;-145.72;81.30
28648;BME280;17137;51.494;-0.262;2023-02-28T01:06:06;50717.45;;;-145.72;81.53
28648;BME280;17137;51.494;-0.262;2023-02-28T01:06:36;50713.26;;;-145.72;81.32
28648;BME280;17137;51.494;-0.262;2023-02-28T01:07:07;50717.45;;;-145.72;81.58
28648;BME280;17137;51.494;-0.262;2023-02-28T01:07:37;50724.11;;;-145.72;81.51
28648;BME280;17137;51.494;-0.262;2023-02-28T01:08:07;50711.04;;;-145.72;81.29
28648;BME280;17137;51.494;-0.262;2023-02-28T01:08:38;50716.84;;;-145.72;81.06
28648;BME280;17137;51.494;-0.262;2023-02-28T01:09:09;50710.18;;;-145.72;81.08
28648;BME280;17137;51.494;-0.262;2023-02-28T01:09:39;50710.92;;;-145.72;81.06
28648;BME280;17137;51.494;-0.262;2023-02-28T01:10:10;50711.66;;;-145.72;81.15
28648;BME280;17137;51.494;-0.262;2023-02-28T01:10:41;50717.70;;;-145.72;81.18
28648;BME280;17137;51.494;-0.262;2023-02-28T01:11:14;50719.67;;;-145.72;81.49
28648;BME280;17137;51.494;-0.262;2023-02-28T01:11:45;50700.69;;;-145.72;81.27
28648;BME280;17137;51.494;-0.262;2023-02-28T01:12:15;50720.41;;;-145.72;81.47
28648;BME280;17137;51.494;-0.262;2023-02-28T01:12:46;50713.75;;;-145.72;81.25
28648;BME280;17137;51.494;-0.262;2023-02-28T01:13:16;50715.60;;;-145.72;81.80
28648;BME280;17137;51.494;-0.262;2023-02-28T01:13:47;50724.73;;;-145.72;81.92
28648;BME280;17137;51.494;-0.262;2023-02-28T01:14:18;50719.05;;;-145.72;82.37
28648;BME280;17137;51.494;-0.262;2023-02-28T01:14:49;50708.70;;;-145.72;82.08
28648;BME280;17137;51.494;-0.262;2023-02-28T01:15:19;50719.79;;;-145.72;82.17
28648;BME280;17137;51.494;-0.262;2023-02-28T01:15:52;50705.12;;;-145.72;82.11
28648;BME280;17137;51.494;-0.262;2023-02-28T01:16:23;50713.26;;;-145.72;82.21
28648;BME280;17137;51.494;-0.262;2023-02-28T01:16:53;50700.07;;;-145.72;82.16
28648;BME280;17137;51.494;-0.262;2023-02-28T01:17:24;50712.64;;;-145.72;82.10
28648;BME280;17137;51.494;-0.262;2023-02-28T01:17:54;50702.66;;;-145.72;81.95
28648;BME280;17137;51.494;-0.262;2023-02-28T01:18:24;50719.05;;;-145.72;82.02
28648;BME280;17137;51.494;-0.262;2023-02-28T01:18:55;50714.25;;;-145.72;82.76
28648;BME280;17137;51.494;-0.262;2023-02-28T01:19:25;50734.83;;;-145.72;84.19
28648;BME280;17137;51.494;-0.262;2023-02-28T01:19:56;50720.16;;;-145.72;83.89
28648;BME280;17137;51.494;-0.262;2023-02-28T01:20:26;50724.23;;;-145.72;83.44
28648;BME280;17137;51.494;-0.262;2023-02-28T01:20:57;50708.70;;;-145.72;83.06
28648;BME280;17137;51.494;-0.262;2023-02-28T01:21:27;50727.19;;;-145.72;83.29
28648;BME280;17137;51.494;-0.262;2023-02-28T01:22:01;50716.84;;;-145.72;83.80
28648;BME280;17137;51.494;-0.262;2023-02-28T01:22:31;50726.94;;;-145.72;83.31
28648;BME280;17137;51.494;-0.262;2023-02-28T01:23:01;50720.90;;;-145.72;83.22
28648;BME280;17137;51.494;-0.262;2023-02-28T01:23:32;50715.97;;;-145.72;82.92
28648;BME280;17137;51.494;-0.262;2023-02-28T01:24:02;50713.14;;;-145.72;82.74
28648;BME280;17137;51.494;-0.262;2023-02-28T01:27:53;50705.74;;;-145.72;82.43
28648;BME280;17137;51.494;-0.262;2023-02-28T01:28:24;50720.53;;;-145.72;83.18
28648;BME280;17137;51.494;-0.262;2023-02-28T01:28:54;50690.33;;;-145.72;82.82
28648;BME280;17137;51.494;-0.262;2023-02-28T01:29:24;50701.18;;;-145.72;82.57
28648;BME280;17137;51.494;-0.262;2023-02-28T01:29:55;50710.55;;;-145.72;82.49
28648;BME280;17137;51.494;-0.262;2023-02-28T01:30:25;50711.29;;;-145.72;82.58
28648;BME280;17137;51.494;-0.262;2023-02-28T01:30:55;50700.69;;;-145.72;82.61
28648;BME280;17137;51.494;-0.262;2023-02-28T01:31:25;50713.63;;;-145.72;82.82
28648;BME280;17137;51.494;-0.262;2023-02-28T01:31:56;50718.07;;;-145.72;83.42
28648;BME280;17137;51.494;-0.262;2023-02-28T01:32:26;50721.40;;;-145.72;83.23
28648;BME280;17137;51.494;-0.262;2023-02-28T01:33:01;50713.26;;;-145.72;83.10
28648;BME280;17137;51.494;-0.262;2023-02-28T01:33:32;50715.23;;;-145.72;83.21
28648;BME280;17137;51.494;-0.262;2023-02-28T01:34:03;50711.16;;;-145.72;82.99
28648;BME280;17137;51.494;-0.262;2023-02-28T01:34:33;50710.92;;;-145.72;82.64
28648;BME280;17137;51.494;-0.262;2023-02-28T01:35:04;50707.96;;;-145.72;82.52
28648;BME280;17137;51.494;-0.262;2023-02-28T01:35:35;50716.34;;;-145.72;82.36
28648;BME280;17137;51.494;-0.262;2023-02-28T01:36:09;50695.51;;;-145.72;82.35
28648;BME280;17137;51.494;-0.262;2023-02-28T01:36:40;50709.81;;;-145.72;82.55
28648;BME280;17137;51.494;-0.262;2023-02-28T01:37:11;50703.77;;;-145.72;82.54
28648;BME280;17137;51.494;-0.262;2023-02-28T01:37:41;50702.16;;;-145.72;82.34
28648;BME280;17137;51.494;-0.262;2023-02-28T01:38:11;50712.89;;;-145.72;82.29
28648;BME280;17137;51.494;-0.262;2023-02-28T01:38:42;50695.01;;;-145.72;82.00
28648;BME280;17137;51.494;-0.262;2023-02-28T01:39:12;50706.36;;;-145.72;81.83
28648;BME280;17137;51.494;-0.262;2023-02-28T01:39:42;50711.16;;;-145.72;81.62
28648;BME280;17137;51.494;-0.262;2023-02-28T01:40:13;50702.78;;;-145.72;81.73
28648;BME280;17137;51.494;-0.262;2023-02-28T01:40:44;50702.04;;;-145.72;81.73
28648;BME280;17137;51.494;-0.262;2023-02-28T01:41:17;50703.40;;;-145.72;81.51
28648;BME280;17137;51.494;-0.262;2023-02-28T01:41:48;50701.67;;;-145.72;81.55
28648;BME280;17137;51.494;-0.262;2023-02-28T01:42:18;50709.56;;;-145.72;81.74
28648;BME280;17137;51.494;-0.262;2023-02-28T01:42:48;50705.74;;;-145.72;81.70
28648;BME280;17137;51.494;-0.262;2023-02-28T01:43:22;50713.01;;;-145.72;81.75
28648;BME280;17137;51.494;-0.262;2023-02-28T01:43:57;50705.49;;;-145.72;82.15
28648;BME280;17137;51.494;-0.262;2023-02-28T01:45:34;50703.40;;;-145.72;81.71
28648;BME280;17137;51.494;-0.262;2023-02-28T01:46:05;50698.96;;;-145.72;81.75
28648;BME280;17137;51.494;-0.262;2023-02-28T01:46:36;50713.51;;;-145.72;82.11
28648;BME280;17137;51.494;-0.262;2023-02-28T01:47:06;50714.49;;;-145.72;82.32
28648;BME280;17137;51.494;-0.262;2023-02-28T01:47:39;50718.56;;;-145.72;83.12
28648;BME280;17137;51.494;-0.262;2023-02-28T01:48:10;50717.08;;;-145.72;83.04
28648;BME280;17137;51.494;-0.262;2023-02-28T01:48:46;50716.47;;;-145.72;82.83
28648;BME280;17137;51.494;-0.262;2023-02-28T01:49:18;50711.29;;;-145.72;83.05
28648;BME280;17137;51.494;-0.262;2023-02-28T01:49:49;50721.15;;;-145.72;82.85
28648;BME280;17137;51.494;-0.262;2023-02-28T01:50:24;50711.41;;;-145.72;82.60
28648;BME280;17137;51.494;-0.262;2023-02-28T01:50:58;50709.93;;;-145.72;82.48
28648;BME280;17137;51.494;-0.262;2023-02-28T01:51:33;50713.14;;;-145.72;82.48
28648;BME280;17137;51.494;-0.262;2023-02-28T01:52:04;50716.71;;;-145.72;82.19
28648;BME280;17137;51.494;-0.262;2023-02-28T01:52:36;50703.64;;;-145.72;82.06
28648;BME280;17137;51.494;-0.262;2023-02-28T01:53:10;50721.27;;;-145.72;82.39
28648;BME280;17137;51.494;-0.262;2023-02-28T01:53:47;50714.25;;;-145.72;82.22
28648;BME280;17137;51.494;-0.262;2023-02-28T01:54:22;50720.16;;;-145.72;82.13
28648;BME280;17137;51.494;-0.262;2023-02-28T01:54:56;50706.73;;;-145.72;82.05
28648;BME280;17137;51.494;-0.262;2023-02-28T01:55:27;50711.04;;;-145.72;82.08
28648;BME280;17137;51.494;-0.262;2023-02-28T01:55:58;50716.34;;;-145.72;82.63
28648;BME280;17137;51.494;-0.262;2023-02-28T01:56:33;50714.12;;;-145.72;82.54
28648;BME280;17137;51.494;-0.262;2023-02-28T01:57:09;50705.00;;;-145.72;82.28
28648;BME280;17137;51.494;-0.262;2023-02-28T01:57:43;50719.30;;;-145.72;82.55
28648;BME280;17137;51.494;-0.262;2023-02-28T01:58:16;50718.44;;;-145.72;82.48
28648;BME280;17137;51.494;-0.262;2023-02-28T01:58:46;50713.63;;;-145.72;82.42
28648;BME280;17137;51.494;-0.262;2023-02-28T01:59:22;50715.85;;;-145.72;82.26
28648;BME280;17137;51.494;-0.262;2023-02-28T01:59:57;50710.92;;;-145.72;82.67
28648;BME280;17137;51.494;-0.262;2023-02-28T02:00:30;50708.45;;;-145.72;82.85
28648;BME280;17137;51.494;-0.262;2023-02-28T02:01:00;50705.74;;;-145.72;82.50
28648;BME280;17137;51.494;-0.262;2023-02-28T02:01:31;50703.27;;;-145.72;82.24
28648;BME280;17137;51.494;-0.262;2023-02-28T02:02:02;50713.75;;;-145.72;82.18
28648;BME280;17137;51.494;-0.262;2023-02-28T02:02:32;50713.88;;;-145.72;82.81
28648;BME280;17137;51.494;-0.262;2023-02-28T02:03:07;50713.51;;;-145.72;82.52
28648;BME280;17137;51.494;-0.262;2023-02-28T02:03:38;50714.00;;;-145.72;82.38
28648;BME280;17137;51.494;-0.262;2023-02-28T02:04:41;50717.08;;;-145.72;82.53
28648;BME280;17137;51.494;-0.262;2023-02-28T02:05:16;50712.27;;;-145.72;82.49
28648;BME280;17137;51.494;-0.262;2023-02-28T02:05:47;50703.27;;;-145.72;82.62
28648;BME280;17137;51.494;-0.262;2023-02-28T02:06:17;50703.52;;;-145.72;82.88
28648;BME280;17137;51.494;-0.262;2023-02-28T02:06:48;50699.33;;;-145.72;82.79
28648;BME280;17137;51.494;-0.262;2023-02-28T02:07:20;50687.74;;;-145.72;82.86
28648;BME280;17137;51.494;-0.262;2023-02-28T02:07:54;50718.31;;;-145.72;82.75
28648;BME280;17137;51.494;-0.262;2023-02-28T02:08:26;50717.33;;;-145.72;82.63
28648;BME280;17137;51.494;-0.262;2023-02-28T02:08:58;50709.68;;;-145.72;82.44
28648;BME280;17137;51.494;-0.262;2023-02-28T02:09:28;50707.59;;;-145.72;82.89
28648;BME280;17137;51.494;-0.262;2023-02-28T02:10:01;50705.49;;;-145.72;83.08
28648;BME280;17137;51.494;-0.262;2023-02-28T02:10:35;50723.86;;;-145.72;83.59
28648;BME280;17137;51.494;-0.262;2023-02-28T02:11:10;50712.15;;;-145.72;83.61
28648;BME280;17137;51.494;-0.262;2023-02-28T02:11:43;50725.59;;;-145.72;83.27
28648;BME280;17137;51.494;-0.262;2023-02-28T02:12:25;50696.49;;;-145.72;83.00
28648;BME280;17137;51.494;-0.262;2023-02-28T02:13:15;50704.51;;;-145.72;82.85
28648;BME280;17137;51.494;-0.262;2023-02-28T02:14:04;50705.49;;;-145.72;82.42
28648;BME280;17137;51.494;-0.262;2023-02-28T02:14:47;50714.12;;;-145.72;82.35
28648;BME280;17137;51.494;-0.262;2023-02-28T02:15:26;50699.70;;;-145.72;82.60
28648;BME280;17137;51.494;-0.262;2023-02-28T02:16:06;50696.86;;;-145.72;82.51
28648;BME280;17137;51.494;-0.262;2023-02-28T02:16:51;50714.74;;;-145.72;82.34
28648;BME280;17137;51.494;-0.262;2023-02-28T02:17:33;50721.64;;;-145.72;82.47
28648;BME280;17137;51.494;-0.262;2023-02-28T02:18:12;50712.27;;;-145.72;82.86
28648;BME280;17137;51.494;-0.262;2023-02-28T02:18:49;50726.94;;;-145.72;83.01
28648;BME280;17137;51.494;-0.262;2023-02-28T02:20:41;50718.31;;;-145.72;82.83
28648;BME280;17137;51.494;-0.262;2023-02-28T02:21:38;50702.53;;;-145.72;82.67
28648;BME280;17137;51.494;-0.262;2023-02-28T02:22:26;50698.96;;;-145.72;82.73
28648;BME280;17137;51.494;-0.262;2023-02-28T02:23:50;50694.40;;;-145.72;82.58
28648;BME280;17137;51.494;-0.262;2023-02-28T02:24:57;50706.73;;;-145.72;82.56
28648;BME280;17137;51.494;-0.262;2023-02-28T02:25:32;50713.01;;;-145.72;82.82
28648;BME280;17137;51.494;-0.262;2023-02-28T02:26:24;50704.51;;;-145.72;82.53
28648;BME280;17137;51.494;-0.262;2023-02-28T02:27:20;50705.86;;;-145.72;83.02
28648;BME280;17137;51.494;-0.262;2023-02-28T02:28:05;50720.90;;;-145.72;83.64
28648;BME280;17137;51.494;-0.262;2023-02-28T02:28:56;50719.79;;;-145.72;83.63
28648;BME280;17137;51.494;-0.262;2023-02-28T02:29:51;50713.75;;;-145.72;83.47
28648;BME280;17137;51.494;-0.262;2023-02-28T02:30:44;50703.27;;;-145.72;83.25
28648;BME280;17137;51.494;-0.262;2023-02-28T02:34:26;50716.59;;;-145.72;84.61
28648;BME280;17137;51.494;-0.262;2023-02-28T02:35:04;50715.85;;;-145.72;84.22
28648;BME280;17137;51.494;-0.262;2023-02-28T02:35:45;50720.53;;;-145.72;84.52
28648;BME280;17137;51.494;-0.262;2023-02-28T02:36:21;50720.41;;;-145.72;85.12
28648;BME280;17137;51.494;-0.262;2023-02-28T02:37:01;50722.26;;;-145.72;85.12
28648;BME280;17137;51.494;-0.262;2023-02-28T02:37:39;50733.73;;;-145.72;84.94
28648;BME280;17137;51.494;-0.262;2023-02-28T02:38:20;50727.19;;;-145.72;85.50
28648;BME280;17137;51.494;-0.262;2023-02-28T02:38:57;50743.83;;;-145.72;85.88
28648;BME280;17137;51.494;-0.262;2023-02-28T02:39:40;50738.04;;;-145.72;85.40
28648;BME280;17137;51.494;-0.262;2023-02-28T02:40:17;50724.85;;;-145.72;85.58
28648;BME280;17137;51.494;-0.262;2023-02-28T02:40:56;50735.08;;;-145.72;85.44
28648;BME280;17137;51.494;-0.262;2023-02-28T02:41:33;50726.45;;;-145.72;85.12
28648;BME280;17137;51.494;-0.262;2023-02-28T02:42:11;50722.63;;;-145.72;85.12
28648;BME280;17137;51.494;-0.262;2023-02-28T02:42:49;50718.81;;;-145.72;85.01
28648;BME280;17137;51.494;-0.262;2023-02-28T02:43:52;50718.31;;;-145.72;85.03
28648;BME280;17137;51.494;-0.262;2023-02-28T02:44:28;50736.19;;;-145.72;85.45
28648;BME280;17137;51.494;-0.262;2023-02-28T02:45:03;50728.67;;;-145.72;85.87
28648;BME280;17137;51.494;-0.262;2023-02-28T02:45:39;50713.63;;;-145.72;85.57
28648;BME280;17137;51.494;-0.262;2023-02-28T02:46:15;50722.51;;;-145.72;85.64
28648;BME280;17137;51.494;-0.262;2023-02-28T02:46:48;50720.16;;;-145.72;85.42
28648;BME280;17137;51.494;-0.262;2023-02-28T02:47:21;50719.18;;;-145.72;85.43
28648;BME280;17137;51.494;-0.262;2023-02-28T02:47:56;50724.48;;;-145.72;85.15
28648;BME280;17137;51.494;-0.262;2023-02-28T02:48:31;50711.78;;;-145.72;84.83
28648;BME280;17137;51.494;-0.262;2023-02-28T02:49:06;50710.05;;;-145.72;84.90
28648;BME280;17137;51.494;-0.262;2023-02-28T02:49:42;50726.08;;;-145.72;85.23
28648;BME280;17137;51.494;-0.262;2023-02-28T02:50:17;50714.62;;;-145.72;85.35
28648;BME280;17137;51.494;-0.262;2023-02-28T02:50:52;50719.18;;;-145.72;85.81
28648;BME280;17137;51.494;-0.262;2023-02-28T02:51:25;50736.68;;;-145.72;86.85
28648;BME280;17137;51.494;-0.262;2023-02-28T02:52:00;50728.67;;;-145.72;86.68
28648;BME280;17137;51.494;-0.262;2023-02-28T02:52:37;50727.68;;;-145.72;86.20
28648;BME280;17137;51.494;-0.262;2023-02-28T02:53:11;50725.10;;;-145.72;86.07
28648;BME280;17137;51.494;-0.262;2023-02-28T02:53:46;50722.88;;;-145.72;86.02
28648;BME280;17137;51.494;-0.262;2023-02-28T02:54:22;50733.36;;;-145.72;86.33
28648;BME280;17137;51.494;-0.262;2023-02-28T02:54:55;50729.04;;;-145.72;86.46
28648;BME280;17137;51.494;-0.262;2023-02-28T02:55:27;50736.68;;;-145.72;86.30
28648;BME280;17137;51.494;-0.262;2023-02-28T02:55:59;50727.93;;;-145.72;86.09
28648;BME280;17137;51.494;-0.262;2023-02-28T02:56:32;50725.22;;;-145.72;86.37
28648;BME280;17137;51.494;-0.262;2023-02-28T02:57:07;50722.88;;;-145.72;86.38
28648;BME280;17137;51.494;-0.262;2023-02-28T02:57:42;50735.45;;;-145.72;86.52
28648;BME280;17137;51.494;-0.262;2023-02-28T02:58:17;50734.34;;;-145.72;86.94